Time,TemperatureF,DewpointF,PressureIn,WindDirection,WindDirectionDegrees,WindSpeedMPH,WindSpeedGustMPH,Humidity,HourlyPrecipIn,Conditions,Clouds,dailyrainin,SoftwareType,DateUTC
2013-07-16 18:20:00,91.6,76.7,30.08,WNW,292,1.0,4.0,62,0.00,,,0.00,VWS V14.01,2013-07-16 22:20:00,
2013-07-16 18:41:00,91.6,76.7,30.08,WNW,292,1.0,4.0,62,0.00,,,0.00,VWS V14.01,2013-07-16 22:41:00,
2013-07-16 18:47:00,90.1,77.7,30.07,WNW,295,0.0,0.0,67,0.00,,,0.00,VWS V14.01,2013-07-16 22:47:00,
2013-07-16 18:52:00,90.1,76.8,30.08,WNW,295,0.0,0.0,65,0.00,,,0.00,VWS V14.01,2013-07-16 22:52:00,
2013-07-16 18:57:00,90.1,76.3,30.08,WNW,295,0.0,1.0,64,0.00,,,0.00,VWS V14.01,2013-07-16 22:57:00,
2013-07-16 19:02:00,89.8,77.8,30.08,WNW,295,0.0,0.0,68,0.00,,,0.00,VWS V14.01,2013-07-16 23:02:00,
2013-07-16 19:06:00,89.6,77.2,30.08,WNW,295,0.0,0.0,67,0.00,,,0.00,VWS V14.01,2013-07-16 23:06:00,
2013-07-16 19:11:00,89.4,77.4,30.08,WNW,295,0.0,0.0,68,0.00,,,0.00,VWS V14.01,2013-07-16 23:11:00,
2013-07-16 19:16:00,89.2,77.7,30.08,WNW,295,0.0,0.0,69,0.00,,,0.00,VWS V14.01,2013-07-16 23:16:00,
2013-07-16 19:21:00,88.9,77.4,30.08,WNW,295,0.0,0.0,69,0.00,,,0.00,VWS V14.01,2013-07-16 23:21:00,
2013-07-16 19:26:00,88.5,77.0,30.08,WNW,295,0.0,0.0,69,0.00,,,0.00,VWS V14.01,2013-07-16 23:26:00,
2013-07-16 19:31:00,88.2,77.2,30.08,WNW,295,0.0,0.0,70,0.00,,,0.00,VWS V14.01,2013-07-16 23:31:00,
2013-07-16 19:36:00,88.0,77.0,30.08,WNW,295,0.0,0.0,70,0.00,,,0.00,VWS V14.01,2013-07-16 23:36:00,
2013-07-16 19:41:00,87.9,77.3,30.08,WNW,295,0.0,0.0,71,0.00,,,0.00,VWS V14.01,2013-07-16 23:41:00,
2013-07-16 19:46:00,87.6,77.0,30.08,WNW,295,0.0,0.0,71,0.00,,,0.00,VWS V14.01,2013-07-16 23:46:00,
2013-07-16 19:51:00,87.1,77.4,30.09,WNW,295,0.0,0.0,73,0.00,,,0.00,VWS V14.01,2013-07-16 23:51:00,
2013-07-16 19:56:00,86.7,77.0,30.08,WNW,295,0.0,0.0,73,0.00,,,0.00,VWS V14.01,2013-07-16 23:56:00,
2013-07-16 20:01:00,86.4,77.1,30.08,WNW,295,0.0,0.0,74,0.00,,,0.00,VWS V14.01,2013-07-17 00:01:00,
2013-07-16 20:06:00,86.2,76.9,30.08,WNW,295,0.0,0.0,74,0.00,,,0.00,VWS V14.01,2013-07-17 00:06:00,
2013-07-16 20:11:00,85.9,76.7,30.08,WNW,295,0.0,0.0,74,0.00,,,0.00,VWS V14.01,2013-07-17 00:11:00,
2013-07-16 20:16:00,85.7,76.9,30.09,WNW,295,0.0,0.0,75,0.00,,,0.00,VWS V14.01,2013-07-17 00:16:00,
2013-07-16 20:21:00,85.5,77.1,30.08,WNW,295,0.0,0.0,76,0.00,,,0.00,VWS V14.01,2013-07-17 00:21:00,
2013-07-16 20:26:00,85.3,76.5,30.09,WNW,295,0.0,0.0,75,0.00,,,0.00,VWS V14.01,2013-07-17 00:26:00,
2013-07-16 20:31:00,84.9,76.5,30.08,WNW,295,0.0,0.0,76,0.00,,,0.00,VWS V14.01,2013-07-17 00:31:00,
2013-07-16 20:36:00,84.6,76.2,30.08,WNW,295,0.0,0.0,76,0.00,,,0.00,VWS V14.01,2013-07-17 00:36:00,
2013-07-16 20:41:00,84.2,75.8,30.08,WNW,295,0.0,0.0,76,0.00,,,0.00,VWS V14.01,2013-07-17 00:41:00,
2013-07-16 20:46:00,83.9,75.9,30.08,WNW,295,0.0,0.0,77,0.00,,,0.00,VWS V14.01,2013-07-17 00:46:00,
2013-07-16 20:51:00,83.6,75.6,30.09,WNW,295,0.0,0.0,77,0.00,,,0.00,VWS V14.01,2013-07-17 00:51:00,
2013-07-16 20:56:00,83.3,75.7,30.09,WNW,295,0.0,0.0,78,0.00,,,0.00,VWS V14.01,2013-07-17 00:56:00,
2013-07-16 21:01:00,83.0,75.8,30.09,WNW,295,0.0,0.0,79,0.00,,,0.00,VWS V14.01,2013-07-17 01:01:00,
2013-07-16 21:06:00,82.8,76.0,30.08,WNW,295,0.0,0.0,80,0.00,,,0.00,VWS V14.01,2013-07-17 01:06:00,
2013-07-16 21:11:00,82.7,76.3,30.08,WNW,295,0.0,0.0,81,0.00,,,0.00,VWS V14.01,2013-07-17 01:11:00,
2013-07-16 21:16:00,82.5,75.7,30.08,WNW,295,0.0,0.0,80,0.00,,,0.00,VWS V14.01,2013-07-17 01:16:00,
2013-07-16 21:21:00,82.3,76.3,30.08,WNW,295,0.0,0.0,82,0.00,,,0.00,VWS V14.01,2013-07-17 01:21:00,
2013-07-16 21:27:00,82.0,76.0,30.09,WNW,295,0.0,0.0,82,0.00,,,0.00,VWS V14.01,2013-07-17 01:27:00,
2013-07-16 21:32:00,81.7,75.7,30.09,WNW,295,0.0,0.0,82,0.00,,,0.00,VWS V14.01,2013-07-17 01:32:00,
2013-07-16 21:37:00,81.5,75.5,30.09,WNW,295,0.0,0.0,82,0.00,,,0.00,VWS V14.01,2013-07-17 01:37:00,
2013-07-16 21:42:00,81.2,75.2,30.09,WNW,295,0.0,0.0,82,0.00,,,0.00,VWS V14.01,2013-07-17 01:42:00,
2013-07-16 21:47:00,81.0,75.3,30.09,WNW,295,0.0,0.0,83,0.00,,,0.00,VWS V14.01,2013-07-17 01:47:00,
2013-07-16 21:52:00,80.9,75.3,30.10,WNW,295,0.0,0.0,83,0.00,,,0.00,VWS V14.01,2013-07-17 01:52:00,
2013-07-16 21:57:00,80.7,75.4,30.10,WNW,295,0.0,0.0,84,0.00,,,0.00,VWS V14.01,2013-07-17 01:57:00,
2013-07-16 22:02:00,80.5,74.9,30.10,WNW,295,0.0,0.0,83,0.00,,,0.00,VWS V14.01,2013-07-17 02:02:00,
2013-07-16 22:07:00,80.3,74.7,30.10,WNW,295,0.0,0.0,83,0.00,,,0.00,VWS V14.01,2013-07-17 02:07:00,
2013-07-16 22:12:00,80.2,74.9,30.10,WNW,295,0.0,0.0,84,0.00,,,0.00,VWS V14.01,2013-07-17 02:12:00,
2013-07-16 22:17:00,80.1,74.8,30.10,WNW,295,0.0,0.0,84,0.00,,,0.00,VWS V14.01,2013-07-17 02:17:00,
2013-07-16 22:22:00,79.9,75.0,30.10,WNW,295,0.0,0.0,85,0.00,,,0.00,VWS V14.01,2013-07-17 02:22:00,
2013-07-16 22:27:00,79.8,74.9,30.11,WNW,295,0.0,0.0,85,0.00,,,0.00,VWS V14.01,2013-07-17 02:27:00,
2013-07-16 22:32:00,79.6,74.3,30.11,WNW,295,0.0,0.0,84,0.00,,,0.00,VWS V14.01,2013-07-17 02:32:00,
2013-07-16 22:37:00,79.4,74.2,30.11,WNW,295,0.0,0.0,84,0.00,,,0.00,VWS V14.01,2013-07-17 02:37:00,
2013-07-16 22:42:00,79.3,74.4,30.11,WNW,295,0.0,0.0,85,0.00,,,0.00,VWS V14.01,2013-07-17 02:42:00,
2013-07-16 22:47:00,79.2,74.3,30.11,WNW,295,0.0,0.0,85,0.00,,,0.00,VWS V14.01,2013-07-17 02:47:00,
2013-07-16 22:52:00,79.1,74.6,30.11,WNW,295,0.0,0.0,86,0.00,,,0.00,VWS V14.01,2013-07-17 02:52:00,
2013-07-16 22:57:00,79.0,74.5,30.11,WNW,295,0.0,0.0,86,0.00,,,0.00,VWS V14.01,2013-07-17 02:57:00,
2013-07-16 23:02:00,78.9,74.7,30.11,WNW,295,0.0,0.0,87,0.00,,,0.00,VWS V14.01,2013-07-17 03:02:00,
2013-07-16 23:07:00,78.9,74.7,30.11,WNW,295,0.0,0.0,87,0.00,,,0.00,VWS V14.01,2013-07-17 03:07:00,
2013-07-16 23:12:00,78.7,74.8,30.11,WNW,295,0.0,0.0,88,0.00,,,0.00,VWS V14.01,2013-07-17 03:12:00,
2013-07-16 23:17:00,78.7,74.8,30.11,WNW,295,0.0,0.0,88,0.00,,,0.00,VWS V14.01,2013-07-17 03:17:00,
2013-07-16 23:22:00,78.7,74.8,30.11,WNW,295,0.0,0.0,88,0.00,,,0.00,VWS V14.01,2013-07-17 03:22:00,
2013-07-16 23:27:00,78.5,74.7,30.11,WNW,295,0.0,0.0,88,0.00,,,0.00,VWS V14.01,2013-07-17 03:27:00,
2013-07-16 23:32:00,78.4,74.6,30.11,WNW,295,0.0,0.0,88,0.01,,,0.01,VWS V14.01,2013-07-17 03:32:00,
2013-07-16 23:37:00,78.2,74.7,30.11,WNW,295,0.0,0.0,89,0.01,,,0.01,VWS V14.01,2013-07-17 03:37:00,
2013-07-16 23:42:00,78.1,74.6,30.11,WNW,295,0.0,0.0,89,0.01,,,0.01,VWS V14.01,2013-07-17 03:42:00,
2013-07-16 23:47:00,78.0,74.8,30.11,WNW,295,0.0,0.0,90,0.01,,,0.01,VWS V14.01,2013-07-17 03:47:00,
2013-07-16 23:52:00,77.9,74.7,30.11,WNW,295,0.0,0.0,90,0.01,,,0.01,VWS V14.01,2013-07-17 03:52:00,
2013-07-16 23:58:00,77.8,74.6,30.11,WNW,295,0.0,0.0,90,0.01,,,0.00,VWS V14.01,2013-07-17 03:58:00,